METAR AND TAF INFORMATION
METAR FOR LEVD
ADDS - METARS form results

(1945 UTC 24 March 2019)
Data provider http://aviationweather.gov/metar/data/
 
METAR text: LEVD 241930Z 05009KT CAVOK 12/M01 Q1023
Conditions at: LEVD (VALLADOLID(MIL/C, ES) observed 1930 UTC 24 March 2019
Temperature: 12.0°C (54°F)
Dewpoint: -1.0°C (30°F) [RH = 40%]
Pressure (altimeter): 30.21 inches Hg (1023.0 mb)
Winds: from the NE (50 degrees) at 10 MPH (9 knots; 4.6 m/s)
Visibility: 6 or more miles (10+ km)
Ceiling: ceiling and visibility are OK
Clouds: unknown
Weather: no significant weather observed at this time

METAR text: LEVD 241900Z 05009KT CAVOK 11/M00 Q1022
Conditions at: LEVD (VALLADOLID(MIL/C, ES) observed 1900 UTC 24 March 2019
Temperature: 11.0°C (52°F)
Dewpoint: 0.0°C (32°F) [RH = 47%]
Pressure (altimeter): 30.18 inches Hg (1022.0 mb)
Winds: from the NE (50 degrees) at 10 MPH (9 knots; 4.6 m/s)
Visibility: 6 or more miles (10+ km)
Ceiling: ceiling and visibility are OK
Clouds: unknown
Weather: no significant weather observed at this time

Forecast for: LEVD (VALLADOLID(MIL/C, ES)
Text: TAF LEVD 241700Z 2418/2518 06010KT CAVOK TX17/2418Z TN02/2506Z
Forecast period: 1800 UTC 24 March 2019 to 1800 UTC 25 March 2019
Forecast type: FROM: standard forecast or significant change
Winds: from the ENE (60 degrees) at 12 MPH (10 knots; 5.1 m/s)
Visibility: 6 or more miles 10+ km)
Ceiling: unknown
Clouds: missing
Weather: no significant weather forecast for this period

AIRPORT MAP

RUNWAY INFORMATION
Runway 05 Runway length 9843 ft Runway width 197 ft
Runway elevation 2768 ft Runway displaced threshold 0 ft Runway heading 45
Runway 23 Runway length 9843 ft Runway width 197 ft
Runway elevation 2775 ft Runway displaced threshold 0 ft Runway heading 225
Runway 15 Runway length 2976 ft Runway width 197 ft
Runway elevation 2770 ft Runway displaced threshold 0 ft Runway heading 144
Runway 33 Runway length 2976 ft Runway width 197 ft
Runway elevation 2771 ft Runway displaced threshold 0 ft Runway heading 324

AIRPORT FREQUENCIES
Type TWR Name TWR Frequency 122.2 MHZ

AIRPORT NEAR NAVIGATION AIDS
Type TACAN Name Valladolid Frequency 108200 KHZ
Type NDB Name Valladolid Frequency 342 KHZ